createdAt,value
2023-04-01T00:00:33.746Z,97675.09
2023-04-01T00:01:33.755Z,97671.96
2023-04-01T00:02:33.794Z,97674.91
2023-04-01T00:03:34.657Z,97670.12
2023-04-01T00:04:33.718Z,97674.38
2023-04-01T00:05:33.993Z,97676.83
2023-04-01T00:06:33.821Z,97674.95
2023-04-01T00:07:33.722Z,97674.74
2023-04-01T00:08:33.890Z,97671.19
2023-04-01T00:09:33.764Z,97674.33
2023-04-01T00:10:33.792Z,97673.16
2023-04-01T00:11:33.962Z,97672.3
2023-04-01T00:12:33.950Z,97675.77
2023-04-01T00:13:33.969Z,97673.42
2023-04-01T00:14:33.829Z,97673.88
2023-04-01T00:15:34.508Z,97670.89
2023-04-01T00:16:34.191Z,97670.76
2023-04-01T00:17:33.904Z,97669.91
2023-04-01T00:18:33.870Z,97668.36
2023-04-01T00:19:33.904Z,97669.59
2023-04-01T00:20:34.000Z,97672.19
2023-04-01T00:21:33.914Z,97669.66
2023-04-01T00:22:33.987Z,97673.12
2023-04-01T00:23:34.402Z,97672.09
2023-04-01T00:24:33.956Z,97673.52
2023-04-01T00:25:34.271Z,97672.67
2023-04-01T00:26:33.970Z,97675.23
2023-04-01T00:27:34.046Z,97674.42
2023-04-01T00:28:34.921Z,97668.92
2023-04-01T00:29:34.024Z,97672.34
2023-04-01T00:30:34.062Z,97670.61
2023-04-01T00:31:34.080Z,97666.87
2023-04-01T00:32:34.437Z,97671.45
2023-04-01T00:33:34.072Z,97667.67
2023-04-01T00:34:34.058Z,97671.34
2023-04-01T00:35:34.350Z,97669.19
2023-04-01T00:36:34.164Z,97665.38
2023-04-01T00:37:35.749Z,97665.2
2023-04-01T00:38:34.145Z,97662.33
2023-04-01T00:39:34.926Z,97662.92
2023-04-01T00:40:38.893Z,97662.3
2023-04-01T00:41:35.114Z,97659.33
2023-04-01T00:42:35.151Z,97659.68
2023-04-01T00:43:35.137Z,97656.62
2023-04-01T00:44:35.318Z,97657.58
2023-04-01T00:45:37.256Z,97657
2023-04-01T00:46:35.208Z,97658.42
2023-04-01T00:47:35.327Z,97659.72
2023-04-01T00:48:36.864Z,97659.52
2023-04-01T00:49:40.343Z,97655.3
2023-04-01T00:50:37.977Z,97660.03
2023-04-01T00:51:38.100Z,97655.73
2023-04-01T00:52:36.882Z,97657.14
2023-04-01T00:53:38.833Z,97660.25
2023-04-01T00:54:36.990Z,97655.91
2023-04-01T00:55:39.802Z,97653.98
2023-04-01T00:56:38.637Z,97657.95
2023-04-01T00:57:37.951Z,97659.66
2023-04-01T00:58:39.214Z,97655.98
2023-04-01T00:59:40.040Z,97653.15
2023-04-01T01:00:37.192Z,97658.1
2023-04-01T01:01:36.941Z,97660.05
2023-04-01T01:02:36.946Z,97658.1
2023-04-01T01:03:37.186Z,97652.91
2023-04-01T01:04:36.796Z,97655.91
2023-04-01T01:06:47.681Z,97659.1
2023-04-01T01:07:47.831Z,97654.66
2023-04-01T01:10:43.750Z,97659.8
2023-04-01T01:27:14.138Z,97649.51
2023-04-01T01:33:26.393Z,97654.8
2023-04-01T01:36:29.004Z,97652.05
2023-04-01T01:37:28.252Z,97653.25
2023-04-01T01:38:29.812Z,97655.27
2023-04-01T01:39:31.644Z,97655.09
2023-04-01T01:40:29.199Z,97659.38
2023-04-01T01:41:28.396Z,97656.31
2023-04-01T01:42:30.132Z,97659
2023-04-01T01:43:31.483Z,97657.52
2023-04-01T01:44:29.385Z,97658.13
2023-04-01T01:45:28.191Z,97657.92
2023-04-01T01:46:28.573Z,97662.83
2023-04-01T01:47:29.002Z,97659.23
2023-04-01T01:48:28.560Z,97657.12
2023-04-01T01:49:28.525Z,97661.75
2023-04-01T01:50:28.346Z,97662.49
2023-04-01T01:51:28.640Z,97661.09
2023-04-01T01:52:28.560Z,97659.46
2023-04-01T01:53:28.071Z,97659.59
2023-04-01T01:54:28.013Z,97658.67
2023-04-01T01:55:30.159Z,97660.8
2023-04-01T01:56:29.442Z,97662.52
2023-04-01T01:57:34.324Z,97660.64
2023-04-01T01:58:39.548Z,97663.12
2023-04-01T01:59:31.594Z,97661.39
2023-04-01T02:00:31.165Z,97663.36
2023-04-01T02:01:32.764Z,97660.14
2023-04-01T02:02:32.159Z,97660.67
2023-04-01T02:03:33.771Z,97659.02
2023-04-01T02:04:31.044Z,97659.43
2023-04-01T02:05:32.047Z,97659.72
2023-04-01T02:06:33.257Z,97661.22
2023-04-01T02:07:33.945Z,97659.42
2023-04-01T02:09:33.922Z,97656.58
2023-04-01T02:10:36.516Z,97659.89
2023-04-01T02:12:38.853Z,97657.35
2023-04-01T02:15:47.219Z,97659.19
2023-04-01T02:17:48.796Z,97659.38
2023-04-01T02:18:50.851Z,97658.94
2023-04-01T02:19:54.440Z,97658.06
2023-04-01T02:20:51.874Z,97659.36
2023-04-01T02:21:53.825Z,97664.66
2023-04-01T02:22:52.816Z,97657.92
2023-04-01T02:23:53.281Z,97657.08
2023-04-01T02:24:53.055Z,97655.45
2023-04-01T02:25:51.429Z,97658.02
2023-04-01T02:26:52.145Z,97656.44
2023-04-01T02:27:51.326Z,97657.34
2023-04-01T02:28:51.874Z,97655.86
2023-04-01T02:29:51.634Z,97664.33
2023-04-01T02:30:52.266Z,97662.13
2023-04-01T02:31:51.927Z,97658.7
2023-04-01T02:32:51.426Z,97660.8
2023-04-01T02:33:53.270Z,97661.7
2023-04-01T02:34:52.002Z,97661.56
2023-04-01T02:35:51.388Z,97663.31
2023-04-01T02:36:52.050Z,97667.52
2023-04-01T02:37:52.800Z,97669.65
2023-04-01T02:38:52.444Z,97665.98
2023-04-01T02:39:51.356Z,97668.19
2023-04-01T02:40:52.318Z,97666.17
2023-04-01T02:41:51.339Z,97663.42
2023-04-01T02:42:51.393Z,97668.84
2023-04-01T02:43:51.411Z,97669.42
2023-04-01T02:44:51.413Z,97665.53
2023-04-01T02:45:51.438Z,97664.34
2023-04-01T02:46:51.506Z,97667.67
2023-04-01T02:47:51.488Z,97667.7
2023-04-01T02:48:51.473Z,97674.12
2023-04-01T02:49:51.487Z,97674.78
2023-04-01T02:50:51.538Z,97671.11
2023-04-01T02:51:51.526Z,97673.13
2023-04-01T02:52:56.105Z,97673.7
2023-04-01T02:53:52.933Z,97674.92
2023-04-01T02:54:53.169Z,97675.21
2023-04-01T02:55:52.832Z,97672.42
2023-04-01T02:56:52.803Z,97675.69
2023-04-01T02:57:52.885Z,97676.55
2023-04-01T02:58:53.168Z,97667.41
2023-04-01T02:59:53.229Z,97674.7
2023-04-01T03:00:52.912Z,97676.26
2023-04-01T03:01:52.935Z,97671.84
2023-04-01T03:02:53.424Z,97673.1
2023-04-01T03:03:52.992Z,97676.14
2023-04-01T03:04:53.218Z,97678.25
2023-04-01T03:05:52.981Z,97675.5
2023-04-01T03:06:52.964Z,97671.91
2023-04-01T03:07:52.945Z,97677.73
2023-04-01T03:08:52.998Z,97675.45
2023-04-01T03:09:53.070Z,97677.34
2023-04-01T03:10:52.994Z,97678.44
2023-04-01T03:11:52.996Z,97679.3
2023-04-01T03:12:53.040Z,97680.57
2023-04-01T03:13:53.098Z,97678.23
2023-04-01T03:14:53.163Z,97679.47
2023-04-01T03:15:53.348Z,97681.36
2023-04-01T03:16:53.190Z,97678.31
2023-04-01T03:17:53.171Z,97682.39
2023-04-01T03:18:53.168Z,97683.89
2023-04-01T03:19:53.122Z,97680.61
2023-04-01T03:20:53.126Z,97685.79
2023-04-01T03:21:53.378Z,97684.78
2023-04-01T03:22:53.196Z,97682.81
2023-04-01T03:23:53.241Z,97678.31
2023-04-01T03:24:53.214Z,97676.52
2023-04-01T03:25:53.365Z,97673.88
2023-04-01T03:26:53.224Z,97677.27
2023-04-01T03:27:53.329Z,97674.75
2023-04-01T03:28:53.419Z,97676.47
2023-04-01T03:29:53.351Z,97678.3
2023-04-01T03:30:53.291Z,97677.63
2023-04-01T03:31:53.328Z,97679.27
2023-04-01T03:32:53.589Z,97680.57
2023-04-01T03:33:53.383Z,97682.8
2023-04-01T03:34:53.384Z,97684.16
2023-04-01T03:35:53.524Z,97683.47
2023-04-01T03:36:53.496Z,97687.52
2023-04-01T03:37:54.051Z,97683.48
2023-04-01T03:38:53.480Z,97682.27
2023-04-01T03:39:54.032Z,97689.67
2023-04-01T03:40:53.885Z,97685.3
2023-04-01T03:41:53.897Z,97688.65
2023-04-01T03:42:54.038Z,97690.58
2023-04-01T03:43:54.208Z,97685.73
2023-04-01T03:44:54.011Z,97688.23
2023-04-01T03:45:54.888Z,97688.2
2023-04-01T03:46:54.037Z,97689.37
2023-04-01T03:47:54.572Z,97688.06
2023-04-01T03:48:54.067Z,97689
2023-04-01T03:49:54.014Z,97690.98
2023-04-01T03:50:54.071Z,97687.25
2023-04-01T03:51:54.161Z,97689.73
2023-04-01T03:52:54.086Z,97686.55
2023-04-01T03:53:54.156Z,97686.59
2023-04-01T03:54:54.127Z,97689.06
2023-04-01T03:55:54.567Z,97687.41
2023-04-01T03:56:54.274Z,97683.38
2023-04-01T03:57:54.186Z,97686.06
2023-04-01T03:58:54.305Z,97685.27
2023-04-01T03:59:54.241Z,97685.98
2023-04-01T04:00:54.278Z,97683.7
2023-04-01T04:01:54.223Z,97686.75
2023-04-01T04:02:54.300Z,97683.31
2023-04-01T04:03:54.464Z,97685.89
2023-04-01T04:04:54.233Z,97683.88
2023-04-01T04:05:54.295Z,97685.68
2023-04-01T04:06:54.897Z,97694.05
2023-04-01T04:07:54.870Z,97691.42
2023-04-01T04:08:54.375Z,97695.3
2023-04-01T04:09:54.349Z,97691.42
2023-04-01T04:10:56.908Z,97696.22
2023-04-01T04:11:54.392Z,97699.02
2023-04-01T04:12:54.405Z,97696.73
2023-04-01T04:13:56.030Z,97695.84
2023-04-01T04:14:54.551Z,97696.65
2023-04-01T04:15:54.459Z,97700.03
2023-04-01T04:16:54.488Z,97693.92
2023-04-01T04:17:54.615Z,97695.7
2023-04-01T04:18:54.438Z,97691.41
2023-04-01T04:19:54.570Z,97694.36
2023-04-01T04:20:54.543Z,97691.53
2023-04-01T04:21:54.545Z,97696.17
2023-04-01T04:22:54.604Z,97693.35
2023-04-01T04:23:54.604Z,97692.42
2023-04-01T04:24:54.610Z,97695.81
2023-04-01T04:25:55.614Z,97693.97
2023-04-01T04:26:54.611Z,97690.4
2023-04-01T04:27:54.670Z,97694.09
2023-04-01T04:28:55.420Z,97697.91
2023-04-01T04:29:54.742Z,97691.44
2023-04-01T04:30:55.034Z,97698.64
2023-04-01T04:31:54.712Z,97692.34
2023-04-01T04:32:54.744Z,97696.77
2023-04-01T04:33:55.056Z,97697.61
2023-04-01T04:34:54.755Z,97702.77
2023-04-01T04:35:58.268Z,97698.14
2023-04-01T04:36:54.987Z,97701.09
2023-04-01T04:37:54.962Z,97699.06
2023-04-01T04:38:55.009Z,97702.2
2023-04-01T04:39:55.050Z,97702.95
2023-04-01T04:40:55.179Z,97707.32
2023-04-01T04:41:55.069Z,97709.34
2023-04-01T04:42:55.131Z,97706.11
2023-04-01T04:43:56.567Z,97706.51
2023-04-01T04:44:55.124Z,97703.15
2023-04-01T04:45:55.105Z,97704.11
2023-04-01T04:46:56.546Z,97704.31
2023-04-01T04:47:55.194Z,97705.77
2023-04-01T04:48:55.251Z,97704.16
2023-04-01T04:49:55.248Z,97706.45
2023-04-01T04:50:55.206Z,97706.8
2023-04-01T04:51:55.245Z,97709.8
2023-04-01T04:52:55.249Z,97710.28
2023-04-01T04:53:55.245Z,97709.14
2023-04-01T04:54:55.238Z,97709.22
2023-04-01T04:55:55.334Z,97710.06
2023-04-01T04:56:55.357Z,97708.84
2023-04-01T04:57:55.297Z,97710.23
2023-04-01T04:58:55.320Z,97709.84
2023-04-01T04:59:55.331Z,97710.1
2023-04-01T05:00:55.410Z,97709.24
2023-04-01T05:01:55.363Z,97708.22
2023-04-01T05:02:55.589Z,97708.95
2023-04-01T05:03:55.474Z,97710.03
2023-04-01T05:04:55.407Z,97706.33
2023-04-01T05:05:55.417Z,97702.73
2023-04-01T05:06:55.408Z,97707.06
2023-04-01T05:07:55.588Z,97707.3
2023-04-01T05:08:55.817Z,97706.47
2023-04-01T05:09:55.459Z,97706.66
2023-04-01T05:10:55.525Z,97707.23
2023-04-01T05:11:55.483Z,97706.02
2023-04-01T05:12:55.721Z,97704.5
2023-04-01T05:13:55.574Z,97703.45
2023-04-01T05:14:55.588Z,97702.65
2023-04-01T05:15:55.765Z,97704.39
2023-04-01T05:16:55.773Z,97706.89
2023-04-01T05:17:55.615Z,97708.65
2023-04-01T05:18:55.687Z,97707.88
2023-04-01T05:19:55.659Z,97708.7
2023-04-01T05:20:56.317Z,97706.88
2023-04-01T05:21:55.763Z,97706.23
2023-04-01T05:22:58.883Z,97710.3
2023-04-01T05:23:55.721Z,97710.75
2023-04-01T05:24:55.794Z,97712.31
2023-04-01T05:25:55.732Z,97709.83
2023-04-01T05:26:56.973Z,97709.2
2023-04-01T05:27:55.811Z,97709.59
2023-04-01T05:28:55.756Z,97713.79
2023-04-01T05:29:55.797Z,97711.7
2023-04-01T05:30:55.889Z,97717.3
2023-04-01T05:31:55.906Z,97714.98
2023-04-01T05:32:55.915Z,97719.28
2023-04-01T05:33:56.174Z,97718.81
2023-04-01T05:34:55.851Z,97716.69
2023-04-01T05:35:56.563Z,97722.55
2023-04-01T05:36:55.938Z,97719.23
2023-04-01T05:37:55.916Z,97719.61
2023-04-01T05:38:56.566Z,97723.41
2023-04-01T05:39:56.002Z,97723.83
2023-04-01T05:40:59.681Z,97719.33
2023-04-01T05:41:56.376Z,97722.14
2023-04-01T05:42:56.424Z,97724.07
2023-04-01T05:43:56.387Z,97720.36
2023-04-01T05:44:56.433Z,97723.77
2023-04-01T05:45:56.761Z,97726.26
2023-04-01T05:46:56.821Z,97726.59
2023-04-01T05:47:56.909Z,97724.64
2023-04-01T05:48:56.927Z,97725.31
2023-04-01T05:49:56.932Z,97726.77
2023-04-01T05:50:56.921Z,97729.92
2023-04-01T05:51:57.390Z,97729.9
2023-04-01T05:52:57.120Z,97729.96
2023-04-01T05:53:56.933Z,97728.25
2023-04-01T05:54:56.959Z,97728
2023-04-01T05:55:57.038Z,97727.7
2023-04-01T05:56:57.031Z,97729.39
2023-04-01T05:57:57.190Z,97728.1
2023-04-01T05:58:57.035Z,97729.86
2023-04-01T05:59:57.173Z,97732.58
2023-04-01T06:01:11.460Z,97729.95
2023-04-01T06:01:58.815Z,97736.41
2023-04-01T06:02:59.103Z,97733.68
2023-04-01T06:03:57.306Z,97735.55
2023-04-01T06:05:58.693Z,97736.8
2023-04-01T06:06:58.665Z,97736.98
2023-04-01T06:07:59.738Z,97737.69
2023-04-01T06:09:02.699Z,97734.47
2023-04-01T06:10:00.208Z,97734.05
2023-04-01T06:11:13.100Z,97737.59
2023-04-01T06:13:11.098Z,97738.95
2023-04-01T06:19:25.366Z,97741.19
2023-04-01T06:26:42.007Z,97751.31
2023-04-01T06:30:48.406Z,97752.91
2023-04-01T06:33:59.386Z,97751.73
2023-04-01T06:35:03.686Z,97750.21
2023-04-01T06:53:49.460Z,97759.7
2023-04-01T06:54:49.364Z,97759.23
2023-04-01T06:55:50.909Z,97759.97
2023-04-01T06:56:50.637Z,97758.41
2023-04-01T06:57:51.758Z,97761.94
2023-04-01T06:58:56.165Z,97760.73
2023-04-01T06:59:53.589Z,97759.45
2023-04-01T07:00:54.145Z,97764.81
2023-04-01T07:02:00.685Z,97764.38
2023-04-01T07:03:06.707Z,97762.45
2023-04-01T07:04:01.245Z,97763.3
2023-04-01T07:04:59.080Z,97765
2023-04-01T07:06:01.032Z,97768.75
2023-04-01T07:07:05.044Z,97772.8
2023-04-01T07:08:03.184Z,97771.43
2023-04-01T07:09:04.449Z,97773.07
2023-04-01T07:10:04.736Z,97773.8
2023-04-01T07:11:03.547Z,97775.7
2023-04-01T07:12:06.913Z,97773.28
2023-04-01T07:13:06.070Z,97773.3
2023-04-01T07:14:05.875Z,97773.05
2023-04-01T07:15:10.962Z,97777.09
2023-04-01T07:16:11.803Z,97774.55
2023-04-01T07:17:15.647Z,97774.45
2023-04-01T07:18:15.943Z,97777.64
2023-04-01T07:24:27.633Z,97782.3
2023-04-01T07:25:26.850Z,97787.41
2023-04-01T07:26:25.202Z,97784.84
2023-04-01T07:27:23.957Z,97785.02
2023-04-01T07:28:23.936Z,97782.77
2023-04-01T07:29:25.743Z,97783.31
2023-04-01T07:30:25.421Z,97782.98
2023-04-01T07:32:34.873Z,97780.52
2023-04-01T07:35:39.234Z,97779.62
2023-04-01T07:44:02.260Z,97790.39
2023-04-01T07:53:26.839Z,97788.86
2023-04-01T07:55:27.028Z,97793.4
2023-04-01T08:05:58.130Z,97792
2023-04-01T08:12:14.361Z,97808.22
2023-04-01T08:15:13.582Z,97810.2
2023-04-01T08:16:19.939Z,97806.26
2023-04-01T08:17:17.238Z,97811.02
2023-04-01T08:18:27.272Z,97810.62
2023-04-01T08:19:26.892Z,97813.53
2023-04-01T08:20:28.008Z,97810.16
2023-04-01T08:21:28.836Z,97810.59
2023-04-01T08:22:24.009Z,97815.34
2023-04-01T08:23:23.517Z,97814.27
2023-04-01T08:24:37.164Z,97815.84
2023-04-01T08:25:25.022Z,97814.27
2023-04-01T08:26:29.349Z,97815.09
2023-04-01T08:33:37.609Z,97823.86
2023-04-01T08:34:40.900Z,97822.95
2023-04-01T08:36:44.061Z,97825.69
2023-04-01T08:37:42.667Z,97826.72
2023-04-01T08:39:49.015Z,97824.67
2023-04-01T08:40:56.022Z,97828.98
2023-04-01T08:46:07.050Z,97830.17
2023-04-01T08:48:14.062Z,97833.07
2023-04-01T08:56:21.157Z,97842.67
2023-04-01T08:59:31.277Z,97846.02
2023-04-01T09:00:42.302Z,97849.49
2023-04-01T09:05:48.724Z,97855.41
2023-04-01T09:08:54.767Z,97864.95
2023-04-01T09:09:55.723Z,97862.97
2023-04-01T09:18:22.112Z,97871.81
2023-04-01T09:19:16.034Z,97875.39
2023-04-01T09:21:24.453Z,97875.55
2023-04-01T09:28:42.617Z,97879.9
2023-04-01T09:59:03.246Z,97899.84
2023-04-01T10:13:45.905Z,97908.44
2023-04-01T10:22:00.988Z,97914.73
2023-04-01T10:26:10.105Z,97918.17
2023-04-01T10:39:35.318Z,97943.83
2023-04-01T10:56:34.944Z,97970.14
2023-04-01T11:20:46.244Z,98011.14
2023-04-01T11:29:07.610Z,98017.02
2023-04-01T11:30:11.595Z,98020.2
2023-04-01T11:32:21.125Z,98024.77
2023-04-01T11:33:23.700Z,98018.98
2023-04-01T11:40:48.420Z,98023.8
2023-04-01T11:41:47.217Z,98028
2023-04-01T11:47:00.620Z,98027.37
2023-04-01T12:28:42.303Z,98078.05
2023-04-01T12:30:40.406Z,98083.23
2023-04-01T12:49:28.281Z,98102.14
2023-04-01T12:55:49.519Z,98108.23
2023-04-01T13:01:00.991Z,98108.12
2023-04-01T13:17:50.346Z,98134.1
2023-04-01T13:18:56.540Z,98134.63
2023-04-01T13:20:02.086Z,98137.67
2023-04-01T13:22:03.258Z,98143.62
2023-04-01T13:26:14.211Z,98149.38
2023-04-01T13:28:07.792Z,98149.84
2023-04-01T13:32:19.056Z,98153.48
2023-04-01T13:37:33.360Z,98155.73
2023-04-01T13:42:34.725Z,98155.27
2023-04-01T13:53:06.824Z,98162.78
2023-04-01T13:55:17.447Z,98162.65
2023-04-01T13:59:20.820Z,98162.53
2023-04-01T14:14:04.585Z,98172.27
2023-04-01T14:21:24.025Z,98185.34
2023-04-01T14:22:30.067Z,98184.35
2023-04-01T14:24:32.740Z,98187.58
2023-04-01T14:27:42.082Z,98192.03
2023-04-01T14:30:43.203Z,98198.93
2023-04-01T14:32:52.694Z,98196.28
2023-04-01T14:41:21.393Z,98207.61
2023-04-01T14:49:36.688Z,98216.77
2023-04-01T14:51:39.376Z,98226.03
2023-04-01T14:52:39.077Z,98227.3
2023-04-01T14:53:42.442Z,98227.73
2023-04-01T14:54:41.279Z,98229.12
2023-04-01T14:56:45.379Z,98238.32
2023-04-01T14:57:41.682Z,98228.33
2023-04-01T14:58:50.510Z,98239.54
2023-04-01T14:59:46.712Z,98242.91
2023-04-01T15:01:49.062Z,98242.98
2023-04-01T15:04:59.501Z,98243.97
2023-04-01T15:13:14.745Z,98259.58
2023-04-01T15:18:27.678Z,98277.81
2023-04-01T15:19:37.113Z,98276.2
2023-04-01T15:26:52.751Z,98292.66
2023-04-01T15:27:56.057Z,98293.33
2023-04-01T15:31:59.512Z,98299.05
2023-04-01T15:33:03.549Z,98298.77
2023-04-01T15:39:19.749Z,98305.68
2023-04-01T15:43:37.974Z,98317.83
2023-04-01T15:49:49.594Z,98308.98
2023-04-01T15:56:00.179Z,98306.81
2023-04-01T16:19:05.574Z,98338.15
2023-04-01T16:20:07.297Z,98337.53
2023-04-01T16:21:12.893Z,98340.34
2023-04-01T16:27:28.102Z,98345.88
2023-04-01T16:32:45.154Z,98352.55
2023-04-01T16:37:56.638Z,98363.3
2023-04-01T16:43:12.663Z,98372.09
2023-04-01T16:44:18.552Z,98371.87
2023-04-01T16:47:16.029Z,98376.34
2023-04-01T16:48:21.216Z,98381.15
2023-04-01T16:51:27.360Z,98382.45
2023-04-01T16:55:51.523Z,98389.12
2023-04-01T16:56:51.193Z,98382.4
2023-04-01T16:57:52.590Z,98385.47
2023-04-01T16:58:55.822Z,98382.89
2023-04-01T16:59:53.876Z,98390.34
2023-04-01T17:00:54.261Z,98389.98
2023-04-01T17:01:56.437Z,98388.87
2023-04-01T17:03:03.137Z,98389.55
2023-04-01T17:03:59.855Z,98388.38
2023-04-01T17:07:07.043Z,98393.02
2023-04-01T17:08:11.977Z,98395.47
2023-04-01T17:11:28.162Z,98407.86
2023-04-01T17:12:25.791Z,98413.61
2023-04-01T17:15:33.754Z,98419.69
2023-04-01T17:23:52.993Z,98431.16
2023-04-01T17:26:57.719Z,98434.83
2023-04-01T17:38:24.751Z,98439.92
2023-04-01T17:39:21.678Z,98444.11
2023-04-01T17:48:47.033Z,98451.52
2023-04-01T17:49:54.263Z,98453.94
2023-04-01T17:58:18.841Z,98461.28
2023-04-01T17:59:16.987Z,98460.21
2023-04-01T18:01:23.018Z,98460.34
2023-04-01T18:02:26.829Z,98466.74
2023-04-01T18:10:53.344Z,98472.89
2023-04-01T18:19:10.184Z,98483.17
2023-04-01T18:23:22.642Z,98484.72
2023-04-01T18:24:28.829Z,98483.7
2023-04-01T18:25:33.697Z,98483.58
2023-04-01T18:26:30.619Z,98487.6
2023-04-01T18:27:32.747Z,98485.44
2023-04-01T18:30:40.090Z,98489.94
2023-04-01T18:31:39.177Z,98482.81
2023-04-01T18:32:42.835Z,98491.78
2023-04-01T18:33:48.371Z,98494.01
2023-04-01T18:36:47.277Z,98497.51
2023-04-01T18:39:53.722Z,98498.38
2023-04-01T18:45:10.578Z,98505.46
2023-04-01T18:54:34.192Z,98516.59
2023-04-01T18:59:43.209Z,98528.29
2023-04-01T19:00:44.340Z,98527.08
2023-04-01T19:02:49.106Z,98536.27
2023-04-01T19:05:53.940Z,98533.72
2023-04-01T19:06:53.831Z,98535.48
2023-04-01T19:07:56.454Z,98536.09
2023-04-01T19:08:53.103Z,98533.67
2023-04-01T19:09:53.028Z,98537.5
2023-04-01T19:19:30.135Z,98549.79
2023-04-01T19:20:30.090Z,98553.69
2023-04-01T19:21:30.241Z,98546.75
2023-04-01T19:24:36.948Z,98559.81
2023-04-01T19:29:46.798Z,98563
2023-04-01T19:30:53.965Z,98562.62
2023-04-01T19:31:52.706Z,98564.62
2023-04-01T19:34:59.606Z,98563.67
2023-04-01T19:36:01.831Z,98561.66
2023-04-01T19:46:24.617Z,98576.06
2023-04-01T19:52:33.661Z,98576.3
2023-04-01T19:58:53.036Z,98582.89
2023-04-01T20:00:52.476Z,98584.98
2023-04-01T20:02:59.209Z,98590.27
2023-04-01T20:03:58.809Z,98590.2
2023-04-01T20:04:56.951Z,98591.09
2023-04-01T20:07:13.552Z,98591.75
2023-04-01T20:13:24.840Z,98596.27
2023-04-01T20:15:34.926Z,98604.34
2023-04-01T20:19:37.187Z,98606.6
2023-04-01T20:20:34.946Z,98606.62
2023-04-01T20:21:41.862Z,98609.34
2023-04-01T20:24:46.866Z,98610.97
2023-04-01T20:25:52.476Z,98614.54
2023-04-01T20:27:57.316Z,98615.37
2023-04-01T20:30:00.144Z,98619.25
2023-04-01T20:33:11.623Z,98619.59
2023-04-01T20:37:26.132Z,98618.34
2023-04-01T20:39:26.322Z,98626.09
2023-04-01T20:44:38.589Z,98633.34
2023-04-01T20:45:43.583Z,98640.03
2023-04-01T20:51:43.939Z,98635.59
2023-04-01T20:52:50.320Z,98638.36
2023-04-01T20:54:57.957Z,98644.19
2023-04-01T21:10:41.123Z,98656.33
2023-04-01T21:29:33.691Z,98656.95
2023-04-01T21:31:42.457Z,98659.75
2023-04-01T21:34:51.517Z,98659.9
2023-04-01T21:42:12.022Z,98668.62
2023-04-01T21:43:17.607Z,98663.83
2023-04-01T21:54:39.977Z,98683.41
2023-04-01T21:55:50.563Z,98684.25
2023-04-01T22:09:17.941Z,98696.52
2023-04-01T22:17:39.299Z,98701.47
2023-04-01T22:18:41.765Z,98702.71
2023-04-01T22:19:45.357Z,98699.19
2023-04-01T22:20:51.984Z,98704.57
2023-04-01T22:28:07.471Z,98706.52
2023-04-01T22:29:08.255Z,98708.97
2023-04-01T22:31:08.948Z,98706.22
2023-04-01T22:32:09.115Z,98709.91
2023-04-01T22:34:17.728Z,98714.47
2023-04-01T22:36:28.318Z,98711.78
2023-04-01T22:43:38.583Z,98718.12
2023-04-01T22:44:45.541Z,98717.7
2023-04-01T22:49:53.270Z,98726
2023-04-01T22:52:56.071Z,98725.7
2023-04-01T22:54:59.551Z,98726.83
2023-04-01T22:55:57.997Z,98732.23
2023-04-01T22:56:58.459Z,98730.59
2023-04-01T22:59:03.860Z,98730.23
2023-04-01T23:00:04.598Z,98730.94
2023-04-01T23:01:04.309Z,98733.16
2023-04-01T23:02:04.894Z,98733.34
2023-04-01T23:03:05.321Z,98731.98
2023-04-01T23:04:03.994Z,98732.58
2023-04-01T23:05:02.979Z,98738.39
2023-04-01T23:06:02.808Z,98735.54
2023-04-01T23:07:04.736Z,98740.7
2023-04-01T23:09:07.511Z,98737.39
2023-04-01T23:10:06.762Z,98740.06
2023-04-01T23:11:07.056Z,98742.84
2023-04-01T23:12:10.348Z,98740.31
2023-04-01T23:13:11.665Z,98741.19
2023-04-01T23:15:15.731Z,98740.81
2023-04-01T23:16:12.632Z,98743.14
2023-04-01T23:19:21.924Z,98750.1
2023-04-01T23:21:24.736Z,98747.42
2023-04-01T23:22:24.463Z,98748.7
2023-04-01T23:24:30.458Z,98748.06
2023-04-01T23:26:37.535Z,98754.52
2023-04-01T23:27:37.857Z,98744
2023-04-01T23:28:41.360Z,98751.3
2023-04-01T23:29:36.414Z,98751.69
2023-04-01T23:31:42.441Z,98755.41
2023-04-01T23:32:38.791Z,98751.2
2023-04-01T23:33:38.825Z,98758.27
2023-04-01T23:34:38.826Z,98763
2023-04-01T23:36:44.781Z,98758.3
2023-04-01T23:37:43.143Z,98755.48
2023-04-01T23:38:43.887Z,98758.53
2023-04-01T23:39:44.813Z,98763.18
2023-04-01T23:40:43.118Z,98765.38
2023-04-01T23:41:43.123Z,98759.76
2023-04-01T23:42:43.162Z,98767.03
2023-04-01T23:43:44.424Z,98760.61
2023-04-01T23:44:43.724Z,98771.4
2023-04-01T23:45:43.539Z,98766.68
2023-04-01T23:46:45.143Z,98772.33
2023-04-01T23:47:43.790Z,98769.62
2023-04-01T23:48:44.455Z,98773.58
2023-04-01T23:49:45.767Z,98770.86
2023-04-01T23:50:44.678Z,98768
2023-04-01T23:51:52.974Z,98775.53
2023-04-01T23:52:47.479Z,98768.8
2023-04-01T23:53:47.852Z,98772.99
2023-04-01T23:55:46.545Z,98771.85
2023-04-01T23:56:47.216Z,98774.59
2023-04-01T23:58:49.627Z,98781.77
